createdAt,value
2023-10-28T00:02:27.212Z,7.73
2023-10-28T00:06:28.895Z,7.97
2023-10-28T00:10:34.321Z,7.60
2023-10-28T00:14:35.591Z,8.80
2023-10-28T00:18:37.671Z,7.27
2023-10-28T00:22:38.830Z,6.73
2023-10-28T00:26:40.233Z,7.40
2023-10-28T00:30:42.127Z,6.30
2023-10-28T00:34:43.492Z,5.57
2023-10-28T00:38:44.584Z,6.53
2023-10-28T00:42:48.541Z,8.83
2023-10-28T00:46:49.852Z,6.47
2023-10-28T00:50:51.049Z,7.37
2023-10-28T00:54:53.727Z,3.20
2023-10-28T00:58:55.340Z,3.10
2023-10-28T01:02:56.613Z,4.93
2023-10-28T01:06:57.808Z,3.70
2023-10-28T01:11:02.788Z,5.77
2023-10-28T01:15:05.377Z,4.20
2023-10-28T01:19:06.518Z,7.00
2023-10-28T01:23:08.584Z,6.10
2023-10-28T01:27:10.233Z,7.37
2023-10-28T01:31:11.660Z,7.93
2023-10-28T01:35:13.655Z,7.37
2023-10-28T01:39:16.140Z,9.70
2023-10-28T01:43:17.728Z,12.17
2023-10-28T01:47:18.858Z,10.90
2023-10-28T01:51:19.850Z,9.10
2023-10-28T01:55:21.008Z,8.63
2023-10-28T01:59:22.171Z,8.80
2023-10-28T02:03:23.263Z,7.17
2023-10-28T02:07:24.491Z,4.60
2023-10-28T02:11:25.678Z,3.60
2023-10-28T02:15:26.900Z,3.20
2023-10-28T02:19:28.033Z,3.40
2023-10-28T02:23:29.280Z,3.10
2023-10-28T02:27:30.229Z,1.60
2023-10-28T02:31:31.413Z,1.23
2023-10-28T02:35:33.166Z,1.40
2023-10-28T02:39:34.648Z,1.00
2023-10-28T02:43:35.818Z,1.27
2023-10-28T02:47:37.333Z,3.83
2023-10-28T02:51:38.695Z,2.10
2023-10-28T02:55:39.985Z,2.00
2023-10-28T02:59:41.700Z,1.43
2023-10-28T03:03:43.695Z,1.10
2023-10-28T03:07:45.086Z,0.90
2023-10-28T03:11:46.253Z,0.80
2023-10-28T03:15:47.612Z,1.90
2023-10-28T03:19:49.113Z,0.97
2023-10-28T03:23:50.893Z,0.83
2023-10-28T03:27:51.974Z,1.43
2023-10-28T03:31:53.105Z,1.00
2023-10-28T03:35:59.197Z,0.80
2023-10-28T03:40:00.253Z,1.10
2023-10-28T03:44:01.914Z,0.90
2023-10-28T03:48:03.438Z,1.00
2023-10-28T03:52:05.296Z,0.70
2023-10-28T03:56:07.077Z,1.87
2023-10-28T04:00:10.999Z,1.40
2023-10-28T04:04:12.205Z,1.77
2023-10-28T04:08:13.565Z,1.80
2023-10-28T04:12:16.314Z,3.40
2023-10-28T04:16:17.400Z,3.63
2023-10-28T04:20:18.641Z,9.63
2023-10-28T04:24:19.879Z,3.17
2023-10-28T04:28:20.921Z,6.37
2023-10-28T04:32:23.434Z,3.70
2023-10-28T04:36:25.757Z,3.57
2023-10-28T04:40:26.798Z,2.30
2023-10-28T04:44:28.056Z,4.50
2023-10-28T04:48:29.465Z,1.93
2023-10-28T04:52:31.463Z,3.27
2023-10-28T04:56:32.950Z,5.47
2023-10-28T05:00:34.154Z,4.60
2023-10-28T05:04:35.468Z,2.90
2023-10-28T05:08:37.158Z,2.53
2023-10-28T05:12:40.311Z,4.10
2023-10-28T05:16:41.352Z,2.10
2023-10-28T05:20:42.541Z,2.07
2023-10-28T05:24:44.039Z,2.30
2023-10-28T05:28:47.171Z,2.80
2023-10-28T05:32:48.667Z,3.03
2023-10-28T05:36:51.186Z,2.97
2023-10-28T05:40:52.678Z,4.90
2023-10-28T05:44:54.366Z,4.70
2023-10-28T05:48:57.326Z,6.33
2023-10-28T05:52:58.836Z,4.57
2023-10-28T05:57:00.117Z,4.70
2023-10-28T06:01:02.752Z,4.73
2023-10-28T06:05:07.233Z,8.30
2023-10-28T06:09:11.334Z,7.27
2023-10-28T06:13:12.554Z,5.87
2023-10-28T06:17:14.262Z,7.07
2023-10-28T06:21:15.822Z,5.73
2023-10-28T06:25:17.041Z,5.73
2023-10-28T06:29:19.611Z,6.93
2023-10-28T06:33:21.396Z,6.90
2023-10-28T06:37:24.399Z,6.33
2023-10-28T06:41:26.554Z,7.57
2023-10-28T06:45:28.894Z,8.30
2023-10-28T06:49:32.044Z,12.43
2023-10-28T06:53:33.470Z,9.33
2023-10-28T06:57:34.675Z,8.73
2023-10-28T07:01:35.900Z,6.53
2023-10-28T07:05:38.719Z,4.70
2023-10-28T07:09:40.923Z,3.03
2023-10-28T07:13:42.134Z,2.90
2023-10-28T07:17:44.192Z,4.50
2023-10-28T07:21:45.598Z,3.80
2023-10-28T07:25:46.999Z,4.57
2023-10-28T07:29:50.152Z,3.23
2023-10-28T07:33:51.286Z,3.73
2023-10-28T07:37:52.626Z,6.93
2023-10-28T07:41:54.208Z,6.53
2023-10-28T07:45:56.840Z,7.53
2023-10-28T07:49:58.101Z,6.30
2023-10-28T07:53:59.198Z,3.97
2023-10-28T07:58:01.109Z,4.97
2023-10-28T08:02:02.802Z,3.53
2023-10-28T08:06:11.292Z,4.43
2023-10-28T08:10:12.679Z,3.83
2023-10-28T08:14:14.559Z,4.13
2023-10-28T08:18:15.793Z,6.83
2023-10-28T08:22:17.309Z,6.20
2023-10-28T08:26:18.897Z,5.40
2023-10-28T08:30:20.910Z,3.13
2023-10-28T08:34:22.448Z,2.83
2023-10-28T08:38:23.749Z,4.97
2023-10-28T08:42:25.310Z,7.37
2023-10-28T08:46:27.930Z,5.57
2023-10-28T08:50:29.291Z,9.43
2023-10-28T08:54:32.668Z,3.73
2023-10-28T08:58:34.493Z,4.60
2023-10-28T09:02:37.618Z,3.60
2023-10-28T09:06:40.496Z,5.17
2023-10-28T09:10:43.631Z,4.23
2023-10-28T09:14:44.831Z,3.67
2023-10-28T09:18:45.898Z,5.63
2023-10-28T09:22:47.374Z,8.03
2023-10-28T09:26:50.627Z,4.07
2023-10-28T09:30:51.890Z,5.13
2023-10-28T09:34:53.578Z,5.10
2023-10-28T09:38:56.216Z,5.07
2023-10-28T09:42:58.934Z,9.20
2023-10-28T09:47:04.357Z,7.77
2023-10-28T09:51:06.198Z,4.70
2023-10-28T09:55:11.873Z,5.70
2023-10-28T09:59:21.071Z,6.90
2023-10-28T10:03:57.961Z,5.43
2023-10-28T10:08:01.266Z,6.43
2023-10-28T10:12:03.047Z,6.73
2023-10-28T10:16:08.154Z,3.70
2023-10-28T10:20:10.249Z,11.03
2023-10-28T10:24:11.450Z,8.47
2023-10-28T10:28:16.392Z,6.03
2023-10-28T10:32:17.854Z,5.03
2023-10-28T10:36:19.057Z,7.93
2023-10-28T10:40:21.854Z,4.87
2023-10-28T10:44:36.673Z,9.37
2023-10-28T10:48:37.820Z,4.70
2023-10-28T10:52:40.198Z,7.27
2023-10-28T10:56:41.214Z,10.60
2023-10-28T11:00:54.889Z,6.07
2023-10-28T11:04:58.161Z,8.90
2023-10-28T11:09:05.764Z,6.03
2023-10-28T11:13:08.579Z,8.33
2023-10-28T11:17:10.189Z,9.23
2023-10-28T11:21:12.737Z,7.83
2023-10-28T11:25:14.611Z,8.50
2023-10-28T11:29:17.674Z,10.50
2023-10-28T11:33:19.079Z,5.33
2023-10-28T11:37:20.515Z,11.20
2023-10-28T11:41:23.286Z,7.67
2023-10-28T11:45:24.695Z,8.43
2023-10-28T11:49:28.017Z,6.97
2023-10-28T11:53:30.067Z,7.07
2023-10-28T11:57:32.958Z,7.03
2023-10-28T12:01:36.758Z,12.23
2023-10-28T12:05:38.984Z,7.73
2023-10-28T12:09:40.247Z,10.97
2023-10-28T12:13:41.588Z,9.43
2023-10-28T12:17:44.909Z,7.13
2023-10-28T12:21:46.420Z,27.03
2023-10-28T12:25:49.006Z,9.27
2023-10-28T12:29:50.196Z,8.20
2023-10-28T12:33:52.510Z,13.93
2023-10-28T12:37:53.666Z,14.17
2023-10-28T12:41:54.714Z,11.47
2023-10-28T12:45:55.895Z,10.90
2023-10-28T12:49:57.301Z,14.37
2023-10-28T12:54:00.276Z,16.03
2023-10-28T12:58:01.464Z,8.70
2023-10-28T13:02:05.097Z,4.43
2023-10-28T13:06:07.066Z,6.33
2023-10-28T13:10:10.271Z,8.60
2023-10-28T13:14:12.269Z,10.43
2023-10-28T13:18:13.372Z,4.87
2023-10-28T13:22:14.557Z,8.67
2023-10-28T13:26:15.787Z,10.30
2023-10-28T13:30:17.218Z,6.23
2023-10-28T13:34:18.379Z,5.73
2023-10-28T13:38:19.792Z,8.53
2023-10-28T13:42:20.889Z,9.87
2023-10-28T13:46:21.988Z,7.70
2023-10-28T13:50:23.206Z,5.60
2023-10-28T13:54:24.322Z,9.63
2023-10-28T13:58:25.457Z,16.63
2023-10-28T14:02:26.616Z,5.67
2023-10-28T14:06:27.718Z,11.20
2023-10-28T14:10:28.921Z,10.50
2023-10-28T14:14:30.153Z,9.07
2023-10-28T14:18:31.437Z,11.37
2023-10-28T14:22:32.486Z,9.33
2023-10-28T14:26:33.611Z,8.93
2023-10-28T14:30:34.683Z,3.77
2023-10-28T14:34:35.878Z,4.23
2023-10-28T14:38:39.871Z,7.43
2023-10-28T14:42:43.079Z,3.27
2023-10-28T14:46:44.400Z,4.77
2023-10-28T14:50:50.074Z,2.67
2023-10-28T14:54:51.665Z,11.83
2023-10-28T14:58:52.851Z,5.67
2023-10-28T15:02:54.356Z,7.97
2023-10-28T15:06:55.631Z,11.47
2023-10-28T15:10:56.850Z,5.40
2023-10-28T15:14:59.458Z,9.40
2023-10-28T15:19:01.051Z,7.50
2023-10-28T15:23:02.792Z,8.30
2023-10-28T15:27:06.015Z,7.47
2023-10-28T15:31:10.049Z,5.50
2023-10-28T15:39:20.602Z,6.23
2023-10-28T15:43:21.896Z,9.80
2023-10-28T15:47:24.442Z,13.13
2023-10-28T15:51:26.422Z,11.93
2023-10-28T15:55:27.972Z,6.93
2023-10-28T15:59:29.054Z,8.67
2023-10-28T16:03:31.155Z,10.30
2023-10-28T16:07:32.257Z,9.07
2023-10-28T16:11:33.303Z,8.73
2023-10-28T16:15:34.947Z,7.20
2023-10-28T16:19:37.419Z,7.67
2023-10-28T16:23:39.900Z,4.87
2023-10-28T16:27:41.195Z,5.73
2023-10-28T16:31:42.640Z,5.17
2023-10-28T16:35:44.043Z,8.33
2023-10-28T16:39:45.512Z,8.10
2023-10-28T16:43:46.669Z,9.13
2023-10-28T16:47:47.807Z,11.37
2023-10-28T16:51:49.210Z,10.67
2023-10-28T16:56:04.371Z,14.03
2023-10-28T17:00:07.027Z,10.97
2023-10-28T17:04:08.433Z,34.20
2023-10-28T17:08:09.928Z,13.50
2023-10-28T17:12:11.049Z,11.77
2023-10-28T17:16:12.534Z,10.10
2023-10-28T17:20:13.706Z,13.10
2023-10-28T17:24:14.885Z,14.77
2023-10-28T17:28:16.130Z,18.27
2023-10-28T17:32:17.227Z,18.07
2023-10-28T17:36:18.323Z,14.50
2023-10-28T17:40:20.210Z,12.13
2023-10-28T17:44:21.563Z,11.63
2023-10-28T17:48:23.750Z,12.53
2023-10-28T17:52:24.892Z,13.83
2023-10-28T17:56:27.525Z,15.17
2023-10-28T18:00:30.029Z,19.07
2023-10-28T18:04:31.999Z,20.67
2023-10-28T18:08:36.316Z,21.57
2023-10-28T18:12:39.322Z,22.40
2023-10-28T18:16:40.479Z,22.57
2023-10-28T18:20:46.212Z,24.27
2023-10-28T18:24:47.741Z,27.40
2023-10-28T18:28:49.978Z,26.63
2023-10-28T18:32:51.274Z,27.30
2023-10-28T18:36:53.493Z,24.60
2023-10-28T18:40:55.226Z,23.67
2023-10-28T18:44:57.030Z,31.10
2023-10-28T18:48:59.393Z,25.10
2023-10-28T18:53:00.505Z,24.97
2023-10-28T18:57:01.642Z,25.43
2023-10-28T19:01:14.903Z,30.43
2023-10-28T19:05:16.408Z,24.87
2023-10-28T19:09:17.455Z,23.40
2023-10-28T19:13:18.926Z,28.10
2023-10-28T19:17:20.192Z,26.37
2023-10-28T19:21:21.544Z,23.00
2023-10-28T19:25:22.781Z,22.00
2023-10-28T19:29:24.435Z,22.87
2023-10-28T19:33:25.790Z,16.77
2023-10-28T19:37:27.117Z,17.43
2023-10-28T19:41:28.341Z,17.10
2023-10-28T19:45:29.928Z,21.97
2023-10-28T19:49:31.287Z,24.33
2023-10-28T19:53:33.558Z,21.80
2023-10-28T19:57:36.638Z,20.80
2023-10-28T20:01:38.683Z,22.70
2023-10-28T20:05:39.955Z,20.10
2023-10-28T20:09:40.968Z,15.37
2023-10-28T20:13:44.154Z,15.50
2023-10-28T20:17:45.310Z,19.60
2023-10-28T20:21:46.572Z,20.27
2023-10-28T20:25:47.895Z,14.17
2023-10-28T20:29:49.491Z,14.83
2023-10-28T20:33:51.106Z,18.37
2023-10-28T20:37:52.747Z,18.10
2023-10-28T20:41:54.040Z,21.47
2023-10-28T20:45:55.191Z,21.37
2023-10-28T20:49:58.439Z,23.27
2023-10-28T20:54:00.349Z,21.60
2023-10-28T20:58:02.132Z,29.10
2023-10-28T21:02:04.973Z,26.73
2023-10-28T21:06:07.459Z,25.13
2023-10-28T21:10:09.177Z,23.03
2023-10-28T21:14:10.484Z,20.63
2023-10-28T21:18:13.676Z,21.20
2023-10-28T21:22:15.397Z,19.50
2023-10-28T21:26:16.736Z,24.50
2023-10-28T21:30:17.799Z,19.53
2023-10-28T21:34:19.634Z,23.53
2023-10-28T21:38:22.548Z,17.33
2023-10-28T21:42:23.597Z,20.17
2023-10-28T21:46:24.923Z,14.90
2023-10-28T21:50:26.278Z,14.97
2023-10-28T21:54:27.743Z,17.03
2023-10-28T21:58:29.022Z,19.30
2023-10-28T22:02:30.492Z,16.83
2023-10-28T22:06:31.839Z,19.77
2023-10-28T22:10:33.042Z,18.33
2023-10-28T22:14:34.237Z,22.70
2023-10-28T22:18:36.365Z,19.03
2023-10-28T22:22:38.240Z,20.27
2023-10-28T22:26:39.905Z,19.40
2023-10-28T22:30:41.137Z,19.80
2023-10-28T22:34:42.466Z,22.67
2023-10-28T22:38:43.965Z,20.97
2023-10-28T22:42:45.678Z,21.87
2023-10-28T22:46:46.943Z,22.33
2023-10-28T22:50:48.290Z,22.60
2023-10-28T22:54:49.942Z,31.37
2023-10-28T22:58:51.577Z,23.30
2023-10-28T23:02:53.513Z,22.93
2023-10-28T23:06:54.718Z,26.00
2023-10-28T23:10:57.252Z,22.33
2023-10-28T23:14:59.335Z,26.87
2023-10-28T23:19:00.495Z,24.73
2023-10-28T23:23:02.087Z,25.27
2023-10-28T23:27:03.625Z,23.23
2023-10-28T23:31:04.888Z,28.30
2023-10-28T23:35:06.163Z,25.43
2023-10-28T23:39:07.449Z,26.67
2023-10-28T23:43:08.625Z,26.50
2023-10-28T23:47:09.884Z,28.93
2023-10-28T23:51:10.977Z,30.37
2023-10-28T23:55:12.048Z,28.40
2023-10-28T23:59:13.107Z,26.90
